sensor_id;sensor_type;location;lat;lon;timestamp;noise_LAeq;noise_LA_min;noise_LA_max;noise_LA01;noise_LA95
18377;Laerm;9315;52.624;13.544;2024-01-25T00:00:22;66.31;48.62;85.56;;
18377;Laerm;9315;52.624;13.544;2024-01-25T00:02:50;61.09;47.89;78.78;;
18377;Laerm;9315;52.624;13.544;2024-01-25T00:05:17;49.85;45.29;64.66;;
18377;Laerm;9315;52.624;13.544;2024-01-25T00:07:49;58.91;47.08;77.43;;
18377;Laerm;9315;52.624;13.544;2024-01-25T00:10:18;53.48;45.88;69.81;;
18377;Laerm;9315;52.624;13.544;2024-01-25T00:12:46;58.66;46.60;73.86;;
18377;Laerm;9315;52.624;13.544;2024-01-25T00:15:13;61.09;46.43;75.67;;
18377;Laerm;9315;52.624;13.544;2024-01-25T00:17:42;55.39;46.80;71.77;;
18377;Laerm;9315;52.624;13.544;2024-01-25T00:20:10;63.01;50.32;83.28;;
18377;Laerm;9315;52.624;13.544;2024-01-25T00:22:38;57.12;49.80;72.46;;
18377;Laerm;9315;52.624;13.544;2024-01-25T00:25:08;60.57;46.54;75.27;;
18377;Laerm;9315;52.624;13.544;2024-01-25T00:27:36;55.44;48.67;77.19;;
18377;Laerm;9315;52.624;13.544;2024-01-25T00:30:04;58.12;46.47;71.05;;
18377;Laerm;9315;52.624;13.544;2024-01-25T00:32:32;54.80;45.90;71.24;;
18377;Laerm;9315;52.624;13.544;2024-01-25T00:35:00;60.42;45.46;76.04;;
18377;Laerm;9315;52.624;13.544;2024-01-25T00:37:28;55.14;47.12;69.23;;
18377;Laerm;9315;52.624;13.544;2024-01-25T00:39:56;60.18;47.04;74.59;;
18377;Laerm;9315;52.624;13.544;2024-01-25T00:42:24;58.93;46.73;71.83;;
18377;Laerm;9315;52.624;13.544;2024-01-25T00:44:53;59.40;46.92;74.14;;
18377;Laerm;9315;52.624;13.544;2024-01-25T00:47:22;56.39;45.90;69.09;;
18377;Laerm;9315;52.624;13.544;2024-01-25T00:49:50;51.87;45.87;67.95;;
18377;Laerm;9315;52.624;13.544;2024-01-25T00:52:18;62.78;46.88;78.69;;
18377;Laerm;9315;52.624;13.544;2024-01-25T00:54:46;59.38;47.05;75.88;;
18377;Laerm;9315;52.624;13.544;2024-01-25T00:57:14;57.33;46.70;72.83;;
18377;Laerm;9315;52.624;13.544;2024-01-25T00:59:42;50.58;46.01;65.37;;
18377;Laerm;9315;52.624;13.544;2024-01-25T01:02:13;58.93;45.02;76.38;;
18377;Laerm;9315;52.624;13.544;2024-01-25T01:04:41;51.92;46.63;63.33;;
18377;Laerm;9315;52.624;13.544;2024-01-25T01:07:15;58.66;49.06;74.09;;
18377;Laerm;9315;52.624;13.544;2024-01-25T01:09:43;55.44;47.25;70.27;;
18377;Laerm;9315;52.624;13.544;2024-01-25T01:12:11;61.43;46.56;78.01;;
18377;Laerm;9315;52.624;13.544;2024-01-25T01:14:38;53.32;47.18;68.11;;
18377;Laerm;9315;52.624;13.544;2024-01-25T01:17:05;59.59;46.43;78.52;;
18377;Laerm;9315;52.624;13.544;2024-01-25T01:19:33;53.38;44.02;71.77;;
18377;Laerm;9315;52.624;13.544;2024-01-25T01:22:00;56.73;45.76;76.34;;
18377;Laerm;9315;52.624;13.544;2024-01-25T01:24:28;57.50;47.60;72.98;;
18377;Laerm;9315;52.624;13.544;2024-01-25T01:26:56;57.02;48.39;73.77;;
18377;Laerm;9315;52.624;13.544;2024-01-25T01:29:23;54.57;48.40;68.02;;
18377;Laerm;9315;52.624;13.544;2024-01-25T01:31:51;54.53;46.12;68.44;;
18377;Laerm;9315;52.624;13.544;2024-01-25T01:34:18;47.68;44.61;56.93;;
18377;Laerm;9315;52.624;13.544;2024-01-25T01:36:46;55.90;45.38;74.49;;
18377;Laerm;9315;52.624;13.544;2024-01-25T01:39:13;68.85;45.89;86.38;;
18377;Laerm;9315;52.624;13.544;2024-01-25T01:41:41;60.24;44.69;78.57;;
18377;Laerm;9315;52.624;13.544;2024-01-25T01:44:08;57.23;44.84;73.06;;
18377;Laerm;9315;52.624;13.544;2024-01-25T01:46:39;59.09;47.82;75.09;;
18377;Laerm;9315;52.624;13.544;2024-01-25T01:49:14;54.78;46.46;72.04;;
18377;Laerm;9315;52.624;13.544;2024-01-25T01:51:42;61.05;46.16;74.41;;
18377;Laerm;9315;52.624;13.544;2024-01-25T01:54:11;56.08;45.55;70.67;;
18377;Laerm;9315;52.624;13.544;2024-01-25T01:56:39;57.04;44.96;69.31;;
18377;Laerm;9315;52.624;13.544;2024-01-25T01:59:11;60.82;45.89;79.13;;
18377;Laerm;9315;52.624;13.544;2024-01-25T02:01:39;53.13;46.87;65.96;;
18377;Laerm;9315;52.624;13.544;2024-01-25T02:04:07;57.63;48.47;74.76;;
18377;Laerm;9315;52.624;13.544;2024-01-25T02:06:35;62.08;49.28;76.05;;
18377;Laerm;9315;52.624;13.544;2024-01-25T02:09:03;52.27;44.66;66.79;;
18377;Laerm;9315;52.624;13.544;2024-01-25T02:11:30;56.55;44.44;71.70;;
18377;Laerm;9315;52.624;13.544;2024-01-25T02:13:58;63.27;47.57;82.42;;
18377;Laerm;9315;52.624;13.544;2024-01-25T02:16:26;58.26;47.63;80.16;;
18377;Laerm;9315;52.624;13.544;2024-01-25T02:18:53;61.63;44.18;78.94;;
18377;Laerm;9315;52.624;13.544;2024-01-25T02:21:24;61.49;45.95;76.05;;
18377;Laerm;9315;52.624;13.544;2024-01-25T02:23:52;58.63;45.70;72.30;;
18377;Laerm;9315;52.624;13.544;2024-01-25T02:26:19;64.04;45.32;78.27;;
18377;Laerm;9315;52.624;13.544;2024-01-25T02:28:47;63.34;44.70;79.18;;
18377;Laerm;9315;52.624;13.544;2024-01-25T02:31:14;60.12;45.64;74.31;;
18377;Laerm;9315;52.624;13.544;2024-01-25T02:33:42;60.11;45.17;72.84;;
18377;Laerm;9315;52.624;13.544;2024-01-25T02:36:10;58.80;44.70;74.30;;
18377;Laerm;9315;52.624;13.544;2024-01-25T02:38:37;54.07;44.54;69.12;;
18377;Laerm;9315;52.624;13.544;2024-01-25T02:41:05;58.34;43.33;80.10;;
18377;Laerm;9315;52.624;13.544;2024-01-25T02:43:32;63.23;44.94;81.84;;
18377;Laerm;9315;52.624;13.544;2024-01-25T02:46:00;59.55;43.82;74.33;;
18377;Laerm;9315;52.624;13.544;2024-01-25T02:48:27;62.76;44.08;77.56;;
18377;Laerm;9315;52.624;13.544;2024-01-25T02:50:55;60.13;43.55;74.73;;
18377;Laerm;9315;52.624;13.544;2024-01-25T02:53:22;58.68;45.28;75.12;;
18377;Laerm;9315;52.624;13.544;2024-01-25T02:55:50;53.78;44.17;68.68;;
18377;Laerm;9315;52.624;13.544;2024-01-25T02:58:17;62.52;46.23;79.76;;
18377;Laerm;9315;52.624;13.544;2024-01-25T03:00:45;62.42;45.81;75.76;;
18377;Laerm;9315;52.624;13.544;2024-01-25T03:03:13;64.08;45.27;78.96;;
18377;Laerm;9315;52.624;13.544;2024-01-25T03:05:40;62.87;46.33;77.34;;
18377;Laerm;9315;52.624;13.544;2024-01-25T03:08:08;48.85;45.42;56.26;;
18377;Laerm;9315;52.624;13.544;2024-01-25T03:10:35;58.85;44.05;70.36;;
18377;Laerm;9315;52.624;13.544;2024-01-25T03:13:03;60.67;46.86;73.58;;
18377;Laerm;9315;52.624;13.544;2024-01-25T03:15:31;67.57;47.98;80.41;;
18377;Laerm;9315;52.624;13.544;2024-01-25T03:17:58;61.89;44.05;73.58;;
18377;Laerm;9315;52.624;13.544;2024-01-25T03:20:26;63.24;48.55;74.97;;
18377;Laerm;9315;52.624;13.544;2024-01-25T03:22:53;62.87;45.76;75.22;;
18377;Laerm;9315;52.624;13.544;2024-01-25T03:25:21;63.25;47.07;77.02;;
18377;Laerm;9315;52.624;13.544;2024-01-25T03:27:49;63.70;48.59;75.76;;
18377;Laerm;9315;52.624;13.544;2024-01-25T03:30:17;64.39;48.15;78.88;;
18377;Laerm;9315;52.624;13.544;2024-01-25T03:32:46;62.04;46.82;74.04;;
18377;Laerm;9315;52.624;13.544;2024-01-25T03:35:14;65.50;47.02;75.66;;
18377;Laerm;9315;52.624;13.544;2024-01-25T03:37:42;66.94;48.58;79.38;;
18377;Laerm;9315;52.624;13.544;2024-01-25T03:40:10;65.01;48.25;75.99;;
18377;Laerm;9315;52.624;13.544;2024-01-25T03:42:37;64.13;46.71;75.34;;
18377;Laerm;9315;52.624;13.544;2024-01-25T03:45:06;64.51;48.55;79.48;;
18377;Laerm;9315;52.624;13.544;2024-01-25T03:47:33;63.42;47.66;76.27;;
18377;Laerm;9315;52.624;13.544;2024-01-25T03:50:01;64.48;48.33;76.70;;
18377;Laerm;9315;52.624;13.544;2024-01-25T03:52:29;64.63;48.78;76.37;;
18377;Laerm;9315;52.624;13.544;2024-01-25T03:54:57;64.60;47.90;74.37;;
18377;Laerm;9315;52.624;13.544;2024-01-25T03:57:25;66.65;52.29;77.16;;
18377;Laerm;9315;52.624;13.544;2024-01-25T03:59:52;63.26;48.79;75.83;;
18377;Laerm;9315;52.624;13.544;2024-01-25T04:02:20;66.97;48.59;78.10;;
18377;Laerm;9315;52.624;13.544;2024-01-25T04:04:48;65.06;47.76;73.27;;
18377;Laerm;9315;52.624;13.544;2024-01-25T04:07:15;66.68;49.20;76.77;;
18377;Laerm;9315;52.624;13.544;2024-01-25T04:09:43;67.14;47.59;75.37;;
18377;Laerm;9315;52.624;13.544;2024-01-25T04:12:11;67.70;48.26;77.37;;
18377;Laerm;9315;52.624;13.544;2024-01-25T04:14:38;65.97;47.89;77.06;;
18377;Laerm;9315;52.624;13.544;2024-01-25T04:17:06;69.55;49.56;75.83;;
18377;Laerm;9315;52.624;13.544;2024-01-25T04:19:33;67.80;49.09;76.96;;
18377;Laerm;9315;52.624;13.544;2024-01-25T04:22:01;66.27;47.44;75.25;;
18377;Laerm;9315;52.624;13.544;2024-01-25T04:24:28;66.97;48.45;75.96;;
18377;Laerm;9315;52.624;13.544;2024-01-25T04:26:57;68.71;51.52;79.48;;
18377;Laerm;9315;52.624;13.544;2024-01-25T04:29:24;67.52;51.11;76.79;;
18377;Laerm;9315;52.624;13.544;2024-01-25T04:31:52;66.92;51.92;77.66;;
18377;Laerm;9315;52.624;13.544;2024-01-25T04:34:19;65.88;48.20;74.84;;
18377;Laerm;9315;52.624;13.544;2024-01-25T04:36:47;67.97;50.25;78.18;;
18377;Laerm;9315;52.624;13.544;2024-01-25T04:39:14;67.12;50.53;76.22;;
18377;Laerm;9315;52.624;13.544;2024-01-25T04:41:42;67.49;49.52;74.96;;
18377;Laerm;9315;52.624;13.544;2024-01-25T04:44:09;66.63;50.92;78.72;;
18377;Laerm;9315;52.624;13.544;2024-01-25T04:46:37;67.92;49.81;75.59;;
18377;Laerm;9315;52.624;13.544;2024-01-25T04:49:04;67.50;50.32;75.63;;
18377;Laerm;9315;52.624;13.544;2024-01-25T04:51:32;68.30;53.12;78.44;;
18377;Laerm;9315;52.624;13.544;2024-01-25T04:54:00;67.75;53.03;83.31;;
18377;Laerm;9315;52.624;13.544;2024-01-25T04:56:31;65.54;49.91;77.33;;
18377;Laerm;9315;52.624;13.544;2024-01-25T04:58:58;68.18;48.63;76.89;;
18377;Laerm;9315;52.624;13.544;2024-01-25T05:01:26;68.70;50.17;76.23;;
18377;Laerm;9315;52.624;13.544;2024-01-25T05:03:53;69.53;51.89;81.45;;
18377;Laerm;9315;52.624;13.544;2024-01-25T05:06:21;67.88;49.52;79.01;;
18377;Laerm;9315;52.624;13.544;2024-01-25T05:08:48;67.12;49.10;78.45;;
18377;Laerm;9315;52.624;13.544;2024-01-25T05:11:17;69.24;50.26;76.54;;
18377;Laerm;9315;52.624;13.544;2024-01-25T05:13:44;70.00;52.08;79.65;;
18377;Laerm;9315;52.624;13.544;2024-01-25T05:16:12;70.02;53.77;82.12;;
18377;Laerm;9315;52.624;13.544;2024-01-25T05:18:39;69.04;51.40;78.43;;
18377;Laerm;9315;52.624;13.544;2024-01-25T05:21:07;68.05;52.71;76.57;;
18377;Laerm;9315;52.624;13.544;2024-01-25T05:23:35;70.19;51.92;79.31;;
18377;Laerm;9315;52.624;13.544;2024-01-25T05:26:02;71.25;52.41;82.73;;
18377;Laerm;9315;52.624;13.544;2024-01-25T05:28:30;70.91;55.08;82.60;;
18377;Laerm;9315;52.624;13.544;2024-01-25T05:30:57;69.26;53.09;77.80;;
18377;Laerm;9315;52.624;13.544;2024-01-25T05:33:27;69.70;52.76;82.95;;
18377;Laerm;9315;52.624;13.544;2024-01-25T05:35:55;70.64;53.69;78.31;;
18377;Laerm;9315;52.624;13.544;2024-01-25T05:38:22;68.79;53.02;79.92;;
18377;Laerm;9315;52.624;13.544;2024-01-25T05:40:50;70.06;53.43;78.13;;
18377;Laerm;9315;52.624;13.544;2024-01-25T05:43:17;68.92;55.97;79.21;;
18377;Laerm;9315;52.624;13.544;2024-01-25T05:45:45;71.01;53.99;78.71;;
18377;Laerm;9315;52.624;13.544;2024-01-25T05:48:15;70.88;54.23;79.71;;
18377;Laerm;9315;52.624;13.544;2024-01-25T05:50:42;69.17;51.72;82.84;;
18377;Laerm;9315;52.624;13.544;2024-01-25T05:53:13;69.75;50.89;80.33;;
18377;Laerm;9315;52.624;13.544;2024-01-25T05:55:40;69.69;51.87;77.39;;
18377;Laerm;9315;52.624;13.544;2024-01-25T05:58:08;68.90;53.07;77.23;;
18377;Laerm;9315;52.624;13.544;2024-01-25T06:00:35;68.52;49.76;77.15;;
18377;Laerm;9315;52.624;13.544;2024-01-25T06:03:03;70.84;54.84;79.54;;
18377;Laerm;9315;52.624;13.544;2024-01-25T06:05:30;69.39;52.38;77.59;;
18377;Laerm;9315;52.624;13.544;2024-01-25T06:07:58;69.71;55.22;80.23;;
18377;Laerm;9315;52.624;13.544;2024-01-25T06:10:26;68.33;51.09;78.47;;
18377;Laerm;9315;52.624;13.544;2024-01-25T06:12:54;68.56;51.53;76.70;;
18377;Laerm;9315;52.624;13.544;2024-01-25T06:15:21;69.68;52.11;81.74;;
18377;Laerm;9315;52.624;13.544;2024-01-25T06:17:49;70.38;53.81;77.32;;
18377;Laerm;9315;52.624;13.544;2024-01-25T06:20:16;69.40;51.43;76.84;;
18377;Laerm;9315;52.624;13.544;2024-01-25T06:22:45;69.14;52.52;76.69;;
18377;Laerm;9315;52.624;13.544;2024-01-25T06:25:12;69.73;53.58;80.28;;
18377;Laerm;9315;52.624;13.544;2024-01-25T06:27:40;70.57;50.11;79.33;;
18377;Laerm;9315;52.624;13.544;2024-01-25T06:30:08;70.90;53.27;80.64;;
18377;Laerm;9315;52.624;13.544;2024-01-25T06:32:36;68.94;50.73;76.77;;
18377;Laerm;9315;52.624;13.544;2024-01-25T06:35:06;68.94;52.08;78.42;;
18377;Laerm;9315;52.624;13.544;2024-01-25T06:37:34;68.46;51.07;76.43;;
18377;Laerm;9315;52.624;13.544;2024-01-25T06:40:02;71.19;52.62;82.18;;
18377;Laerm;9315;52.624;13.544;2024-01-25T06:42:30;69.77;53.14;76.60;;
18377;Laerm;9315;52.624;13.544;2024-01-25T06:44:59;68.29;53.42;76.70;;
18377;Laerm;9315;52.624;13.544;2024-01-25T06:47:26;69.58;55.37;79.97;;
18377;Laerm;9315;52.624;13.544;2024-01-25T06:49:54;68.64;52.09;76.02;;
18377;Laerm;9315;52.624;13.544;2024-01-25T06:52:22;69.62;52.13;76.06;;
18377;Laerm;9315;52.624;13.544;2024-01-25T06:54:52;70.87;51.57;84.07;;
18377;Laerm;9315;52.624;13.544;2024-01-25T06:57:20;69.13;52.55;78.00;;
18377;Laerm;9315;52.624;13.544;2024-01-25T06:59:48;70.34;54.99;75.76;;
18377;Laerm;9315;52.624;13.544;2024-01-25T07:02:16;70.36;52.69;81.44;;
18377;Laerm;9315;52.624;13.544;2024-01-25T07:04:43;69.68;53.18;79.07;;
18377;Laerm;9315;52.624;13.544;2024-01-25T07:07:12;69.72;53.58;79.95;;
18377;Laerm;9315;52.624;13.544;2024-01-25T07:09:39;70.00;53.11;79.60;;
18377;Laerm;9315;52.624;13.544;2024-01-25T07:12:07;69.80;53.80;78.44;;
18377;Laerm;9315;52.624;13.544;2024-01-25T07:14:34;69.48;51.94;80.40;;
18377;Laerm;9315;52.624;13.544;2024-01-25T07:17:02;70.00;51.79;77.74;;
18377;Laerm;9315;52.624;13.544;2024-01-25T07:19:30;68.93;51.25;76.32;;
18377;Laerm;9315;52.624;13.544;2024-01-25T07:21:57;69.13;48.14;77.56;;
18377;Laerm;9315;52.624;13.544;2024-01-25T07:24:25;69.61;51.75;81.42;;
18377;Laerm;9315;52.624;13.544;2024-01-25T07:26:53;71.31;55.30;81.93;;
18377;Laerm;9315;52.624;13.544;2024-01-25T07:29:23;67.01;51.94;74.51;;
18377;Laerm;9315;52.624;13.544;2024-01-25T07:31:50;71.54;53.80;83.15;;
18377;Laerm;9315;52.624;13.544;2024-01-25T07:34:18;67.31;50.92;77.23;;
18377;Laerm;9315;52.624;13.544;2024-01-25T07:36:45;69.06;52.16;78.59;;
18377;Laerm;9315;52.624;13.544;2024-01-25T07:39:13;68.60;51.57;79.63;;
18377;Laerm;9315;52.624;13.544;2024-01-25T07:41:41;68.00;50.82;77.42;;
18377;Laerm;9315;52.624;13.544;2024-01-25T07:44:08;69.21;52.78;80.47;;
18377;Laerm;9315;52.624;13.544;2024-01-25T07:46:37;71.05;54.04;82.31;;
18377;Laerm;9315;52.624;13.544;2024-01-25T07:49:05;69.66;50.16;77.50;;
18377;Laerm;9315;52.624;13.544;2024-01-25T07:51:33;70.44;51.56;79.09;;
18377;Laerm;9315;52.624;13.544;2024-01-25T07:54:00;70.37;50.92;91.88;;
18377;Laerm;9315;52.624;13.544;2024-01-25T07:56:29;68.65;53.70;78.81;;
18377;Laerm;9315;52.624;13.544;2024-01-25T07:58:59;69.26;49.38;79.87;;
18377;Laerm;9315;52.624;13.544;2024-01-25T08:01:27;68.25;50.07;76.51;;
18377;Laerm;9315;52.624;13.544;2024-01-25T08:03:55;70.12;50.43;83.53;;
18377;Laerm;9315;52.624;13.544;2024-01-25T08:06:23;70.33;52.73;79.66;;
18377;Laerm;9315;52.624;13.544;2024-01-25T08:08:50;71.62;51.53;92.36;;
18377;Laerm;9315;52.624;13.544;2024-01-25T08:11:18;71.01;51.78;82.18;;
18377;Laerm;9315;52.624;13.544;2024-01-25T08:13:47;69.84;52.69;78.43;;
18377;Laerm;9315;52.624;13.544;2024-01-25T08:16:15;70.44;54.01;83.26;;
18377;Laerm;9315;52.624;13.544;2024-01-25T08:18:49;69.73;53.84;75.56;;
18377;Laerm;9315;52.624;13.544;2024-01-25T08:21:17;69.73;52.24;81.58;;
18377;Laerm;9315;52.624;13.544;2024-01-25T08:23:46;69.64;51.27;79.76;;
18377;Laerm;9315;52.624;13.544;2024-01-25T08:26:14;67.86;50.37;77.76;;
18377;Laerm;9315;52.624;13.544;2024-01-25T08:28:43;69.14;52.07;75.90;;
18377;Laerm;9315;52.624;13.544;2024-01-25T08:31:12;69.27;50.01;78.04;;
18377;Laerm;9315;52.624;13.544;2024-01-25T08:33:41;69.93;50.76;76.74;;
18377;Laerm;9315;52.624;13.544;2024-01-25T08:36:18;70.05;50.18;81.35;;
18377;Laerm;9315;52.624;13.544;2024-01-25T08:38:46;69.82;51.04;78.47;;
18377;Laerm;9315;52.624;13.544;2024-01-25T08:41:14;69.80;51.67;79.56;;
18377;Laerm;9315;52.624;13.544;2024-01-25T08:43:42;69.94;51.27;77.91;;
18377;Laerm;9315;52.624;13.544;2024-01-25T08:46:14;68.64;50.25;79.96;;
18377;Laerm;9315;52.624;13.544;2024-01-25T08:48:42;69.12;50.27;83.10;;
18377;Laerm;9315;52.624;13.544;2024-01-25T08:51:10;70.19;51.96;81.12;;
18377;Laerm;9315;52.624;13.544;2024-01-25T08:53:38;69.51;51.25;78.46;;
18377;Laerm;9315;52.624;13.544;2024-01-25T08:56:06;68.88;52.89;76.79;;
18377;Laerm;9315;52.624;13.544;2024-01-25T08:58:33;68.75;49.57;78.38;;
18377;Laerm;9315;52.624;13.544;2024-01-25T09:01:01;69.46;50.31;85.42;;
18377;Laerm;9315;52.624;13.544;2024-01-25T09:03:28;66.75;50.09;76.14;;
18377;Laerm;9315;52.624;13.544;2024-01-25T09:05:56;71.04;50.19;82.20;;
18377;Laerm;9315;52.624;13.544;2024-01-25T09:08:24;68.62;53.57;76.10;;
18377;Laerm;9315;52.624;13.544;2024-01-25T09:10:54;69.82;52.51;79.98;;
18377;Laerm;9315;52.624;13.544;2024-01-25T09:13:25;75.39;49.52;97.45;;
18377;Laerm;9315;52.624;13.544;2024-01-25T09:15:52;69.11;50.57;75.64;;
18377;Laerm;9315;52.624;13.544;2024-01-25T09:18:21;70.17;50.76;78.13;;
18377;Laerm;9315;52.624;13.544;2024-01-25T09:20:49;68.09;49.78;76.16;;
18377;Laerm;9315;52.624;13.544;2024-01-25T09:23:17;69.78;53.83;78.50;;
18377;Laerm;9315;52.624;13.544;2024-01-25T09:25:46;70.61;50.82;78.82;;
18377;Laerm;9315;52.624;13.544;2024-01-25T09:28:14;70.43;51.91;82.47;;
18377;Laerm;9315;52.624;13.544;2024-01-25T09:30:44;69.30;52.99;78.03;;
18377;Laerm;9315;52.624;13.544;2024-01-25T09:33:14;69.90;48.96;82.64;;
18377;Laerm;9315;52.624;13.544;2024-01-25T09:35:41;70.06;50.85;80.83;;
18377;Laerm;9315;52.624;13.544;2024-01-25T09:38:14;68.05;50.46;79.28;;
18377;Laerm;9315;52.624;13.544;2024-01-25T09:40:41;70.13;51.65;81.37;;
18377;Laerm;9315;52.624;13.544;2024-01-25T09:43:11;70.05;52.46;78.61;;
18377;Laerm;9315;52.624;13.544;2024-01-25T09:45:41;70.58;53.89;78.41;;
18377;Laerm;9315;52.624;13.544;2024-01-25T09:48:11;70.15;50.96;78.49;;
18377;Laerm;9315;52.624;13.544;2024-01-25T09:50:40;67.90;52.00;80.07;;
18377;Laerm;9315;52.624;13.544;2024-01-25T09:53:15;68.17;50.29;79.20;;
18377;Laerm;9315;52.624;13.544;2024-01-25T09:56:14;67.21;49.90;75.26;;
18377;Laerm;9315;52.624;13.544;2024-01-25T09:58:44;68.03;51.00;76.84;;
18377;Laerm;9315;52.624;13.544;2024-01-25T10:01:15;69.64;55.33;76.39;;
18377;Laerm;9315;52.624;13.544;2024-01-25T10:03:45;68.74;48.41;79.53;;
18377;Laerm;9315;52.624;13.544;2024-01-25T10:06:16;67.30;48.64;80.14;;
18377;Laerm;9315;52.624;13.544;2024-01-25T10:08:45;70.46;51.67;80.50;;
18377;Laerm;9315;52.624;13.544;2024-01-25T10:11:13;68.80;49.85;76.87;;
18377;Laerm;9315;52.624;13.544;2024-01-25T10:13:47;70.64;55.69;81.45;;
18377;Laerm;9315;52.624;13.544;2024-01-25T10:16:17;69.11;50.95;78.42;;
18377;Laerm;9315;52.624;13.544;2024-01-25T10:18:47;68.55;49.26;76.50;;
18377;Laerm;9315;52.624;13.544;2024-01-25T10:21:16;68.84;51.38;77.77;;
18377;Laerm;9315;52.624;13.544;2024-01-25T10:23:46;70.24;51.88;77.96;;
18377;Laerm;9315;52.624;13.544;2024-01-25T10:26:16;69.76;52.10;78.93;;
18377;Laerm;9315;52.624;13.544;2024-01-25T10:28:54;69.58;52.06;79.36;;
18377;Laerm;9315;52.624;13.544;2024-01-25T10:31:29;67.56;51.40;76.39;;
18377;Laerm;9315;52.624;13.544;2024-01-25T10:34:00;69.36;51.62;80.75;;
18377;Laerm;9315;52.624;13.544;2024-01-25T10:36:28;67.65;48.58;78.70;;
18377;Laerm;9315;52.624;13.544;2024-01-25T10:38:57;68.97;49.76;77.75;;
18377;Laerm;9315;52.624;13.544;2024-01-25T10:41:27;69.78;52.88;81.56;;
18377;Laerm;9315;52.624;13.544;2024-01-25T10:43:55;68.74;50.83;78.66;;
18377;Laerm;9315;52.624;13.544;2024-01-25T10:46:23;70.07;51.99;79.52;;
18377;Laerm;9315;52.624;13.544;2024-01-25T10:48:51;69.83;50.85;80.02;;
18377;Laerm;9315;52.624;13.544;2024-01-25T10:51:19;68.50;52.20;78.53;;
18377;Laerm;9315;52.624;13.544;2024-01-25T10:53:47;70.99;49.54;82.86;;
18377;Laerm;9315;52.624;13.544;2024-01-25T10:56:15;69.03;51.09;77.43;;
18377;Laerm;9315;52.624;13.544;2024-01-25T10:58:43;68.74;50.37;76.09;;
18377;Laerm;9315;52.624;13.544;2024-01-25T11:01:11;68.50;48.71;78.06;;
18377;Laerm;9315;52.624;13.544;2024-01-25T11:03:45;70.01;49.58;83.12;;
18377;Laerm;9315;52.624;13.544;2024-01-25T11:06:18;69.05;52.57;78.75;;
18377;Laerm;9315;52.624;13.544;2024-01-25T11:08:47;69.24;50.26;84.10;;
18377;Laerm;9315;52.624;13.544;2024-01-25T11:11:15;70.37;52.83;81.50;;
18377;Laerm;9315;52.624;13.544;2024-01-25T11:13:45;70.30;49.67;80.46;;
18377;Laerm;9315;52.624;13.544;2024-01-25T11:16:30;68.61;49.98;78.89;;
18377;Laerm;9315;52.624;13.544;2024-01-25T11:19:00;71.18;51.09;80.70;;
18377;Laerm;9315;52.624;13.544;2024-01-25T11:24:24;69.88;52.20;80.11;;
18377;Laerm;9315;52.624;13.544;2024-01-25T11:26:55;69.39;51.88;76.93;;
18377;Laerm;9315;52.624;13.544;2024-01-25T11:29:23;71.15;51.32;81.50;;
18377;Laerm;9315;52.624;13.544;2024-01-25T11:31:52;70.84;52.37;78.12;;
18377;Laerm;9315;52.624;13.544;2024-01-25T11:34:20;69.46;50.28;77.03;;
18377;Laerm;9315;52.624;13.544;2024-01-25T11:36:49;69.51;49.23;80.01;;
18377;Laerm;9315;52.624;13.544;2024-01-25T11:39:17;68.54;52.26;75.85;;
18377;Laerm;9315;52.624;13.544;2024-01-25T11:41:45;69.78;50.58;80.73;;
18377;Laerm;9315;52.624;13.544;2024-01-25T11:44:14;69.12;47.21;78.65;;
18377;Laerm;9315;52.624;13.544;2024-01-25T11:46:42;69.34;48.69;79.73;;
18377;Laerm;9315;52.624;13.544;2024-01-25T11:49:10;69.53;49.18;81.23;;
18377;Laerm;9315;52.624;13.544;2024-01-25T11:51:38;70.05;47.09;77.78;;
18377;Laerm;9315;52.624;13.544;2024-01-25T11:54:05;67.70;48.22;78.42;;
18377;Laerm;9315;52.624;13.544;2024-01-25T11:56:38;68.71;47.66;79.43;;
18377;Laerm;9315;52.624;13.544;2024-01-25T11:59:10;70.98;51.75;82.05;;
18377;Laerm;9315;52.624;13.544;2024-01-25T12:01:39;69.66;50.70;78.87;;
18377;Laerm;9315;52.624;13.544;2024-01-25T12:04:09;68.47;50.33;77.88;;
18377;Laerm;9315;52.624;13.544;2024-01-25T12:06:37;70.29;50.59;79.24;;
18377;Laerm;9315;52.624;13.544;2024-01-25T12:09:09;67.78;49.36;76.90;;
18377;Laerm;9315;52.624;13.544;2024-01-25T12:11:40;70.09;50.49;77.07;;
18377;Laerm;9315;52.624;13.544;2024-01-25T12:14:11;68.68;50.77;77.06;;
18377;Laerm;9315;52.624;13.544;2024-01-25T12:16:38;69.00;50.55;77.26;;
18377;Laerm;9315;52.624;13.544;2024-01-25T12:19:06;69.41;49.41;77.41;;
18377;Laerm;9315;52.624;13.544;2024-01-25T12:21:35;71.34;50.56;83.52;;
18377;Laerm;9315;52.624;13.544;2024-01-25T12:24:06;69.82;54.34;80.41;;
18377;Laerm;9315;52.624;13.544;2024-01-25T12:26:35;68.84;49.16;76.99;;
18377;Laerm;9315;52.624;13.544;2024-01-25T12:29:03;68.94;50.63;77.28;;
18377;Laerm;9315;52.624;13.544;2024-01-25T12:31:32;69.27;53.38;77.31;;
18377;Laerm;9315;52.624;13.544;2024-01-25T12:34:00;69.32;49.52;77.41;;
18377;Laerm;9315;52.624;13.544;2024-01-25T12:36:29;68.94;50.20;78.96;;
18377;Laerm;9315;52.624;13.544;2024-01-25T12:38:57;70.80;51.00;82.96;;
18377;Laerm;9315;52.624;13.544;2024-01-25T12:41:27;69.74;49.70;80.51;;
18377;Laerm;9315;52.624;13.544;2024-01-25T12:43:55;69.02;50.73;78.76;;
18377;Laerm;9315;52.624;13.544;2024-01-25T12:46:22;68.44;49.41;77.48;;
18377;Laerm;9315;52.624;13.544;2024-01-25T12:48:54;69.50;48.78;78.37;;
18377;Laerm;9315;52.624;13.544;2024-01-25T12:51:25;68.24;48.74;78.38;;
18377;Laerm;9315;52.624;13.544;2024-01-25T12:53:53;71.27;50.89;77.46;;
18377;Laerm;9315;52.624;13.544;2024-01-25T12:56:21;68.36;49.16;79.47;;
18377;Laerm;9315;52.624;13.544;2024-01-25T12:58:48;66.36;49.07;74.47;;
18377;Laerm;9315;52.624;13.544;2024-01-25T13:01:17;69.11;51.15;77.27;;
18377;Laerm;9315;52.624;13.544;2024-01-25T13:03:45;70.44;52.98;78.13;;
18377;Laerm;9315;52.624;13.544;2024-01-25T13:06:15;70.40;50.82;81.91;;
18377;Laerm;9315;52.624;13.544;2024-01-25T13:08:43;69.65;49.08;80.83;;
18377;Laerm;9315;52.624;13.544;2024-01-25T13:11:12;69.57;54.29;77.79;;
18377;Laerm;9315;52.624;13.544;2024-01-25T13:13:39;70.78;52.46;79.48;;
18377;Laerm;9315;52.624;13.544;2024-01-25T13:16:07;70.95;49.94;80.69;;
18377;Laerm;9315;52.624;13.544;2024-01-25T13:18:35;68.05;49.68;75.64;;
18377;Laerm;9315;52.624;13.544;2024-01-25T13:21:03;72.36;56.40;81.47;;
18377;Laerm;9315;52.624;13.544;2024-01-25T13:23:30;70.88;50.57;79.23;;
18377;Laerm;9315;52.624;13.544;2024-01-25T13:25:59;70.26;53.39;78.38;;
18377;Laerm;9315;52.624;13.544;2024-01-25T13:28:27;70.07;49.61;80.26;;
18377;Laerm;9315;52.624;13.544;2024-01-25T13:30:57;70.49;50.90;82.17;;
18377;Laerm;9315;52.624;13.544;2024-01-25T13:33:27;68.33;50.89;81.31;;
18377;Laerm;9315;52.624;13.544;2024-01-25T13:35:56;70.97;53.81;77.58;;
18377;Laerm;9315;52.624;13.544;2024-01-25T13:38:23;70.20;53.18;77.80;;
18377;Laerm;9315;52.624;13.544;2024-01-25T13:40:51;70.62;52.48;80.81;;
18377;Laerm;9315;52.624;13.544;2024-01-25T13:43:19;70.79;53.18;78.68;;
18377;Laerm;9315;52.624;13.544;2024-01-25T13:45:46;70.80;50.00;78.21;;
18377;Laerm;9315;52.624;13.544;2024-01-25T13:48:14;70.22;51.14;76.72;;
18377;Laerm;9315;52.624;13.544;2024-01-25T13:50:42;70.77;50.28;77.48;;
18377;Laerm;9315;52.624;13.544;2024-01-25T13:53:09;70.29;51.19;79.17;;